LPLA METAR and TAF weather

Enter ICAO airport designator
Station Type Date Time Source
LPLA METAR 2021/04/13 22:00 UTC NOAA

LPLA 132200Z /////KT 9999 FEW023 SCT035 17/15 Q1014


Station Type Date Time Source
LPLA Decoded METAR 2021/04/13 22:00 UTC NOAA

Lajes Acores , Portugal (LPLA) 38-46N 027-06W 54M
Apr 13, 2021 - 06:00 PM EDT / 2021.04.13 2200 UTC
Visibility: greater than 7 mile(s):0
Sky conditions: partly cloudy
Temperature: 62 F (17 C)
Dew Point: 59 F (15 C)
Relative Humidity: 88%
Pressure (altimeter): 29.94 in. Hg (1014 hPa)
ob: LPLA 132200Z /////KT 9999 FEW023 SCT035 17/15 Q1014
cycle: 22

Station Type Date Time Source
LPLA TAF 2021/04/13 18:18 UTC NOAA

TAF LPLA 131705Z 1318/1418 28012KT 9999 FEW025
TEMPO 1318/1320 30015G25KT

Example: see airport list